Franklin, Missouri
Current Conditions -  °F | °C
As of 5:15 PM on Wednesday 22 Oct 2014 (Local Time) from KVER Reporting Station
Haze Haze  
Wind Chill: 66°   Ceiling: 700
Heat Index: 66°   Visibility: 1.5mi
Dew Point: 44°   Wind: 9mph
Humidity: 44%   Direction: 130°SE
Pressure: 30.16"   Gusts: NA
Location:  39.01°N, 92.75°W
Report Text: KVER 222215Z AUTO 13008KT 1 1/2SM HZ VV007 19/06 A3016 RMK AO2 T01880064
Loading
Personal Weather Stations






























Interactive Weather Map
Tropical Storm Tracking
New forecast layout! Learn more

10-Day Weather Forecast

Advertisements
Track Severe Weather on mobile